This is the latest recevied weather packets stored in our database for station/object KF0FSA. If no packets are shown the sender has not sent any weather packets the latest 1 day(s).
| Time | Temp. | Humidity | Pressure | Rain* | Wind** | Luminosity | Snow |
|---|---|---|---|---|---|---|---|
| 1777988138 | 5° C | 60% | 958.8 hPa | 0 mm | 1.34 m/s, 19° | 183 W/m² | - |
| 1777987714 | 5° C | 62% | 958.7 hPa | 0 mm | 1.34 m/s, 284° | 159 W/m² | - |
| 1777987416 | 5° C | 62% | 958.5 hPa | 0 mm | 1.79 m/s, 300° | 184 W/m² | - |
| 1777987115 | 5° C | 61% | 958.5 hPa | 0 mm | 1.79 m/s, 275° | 168 W/m² | - |
| 1777986939 | 5° C | 62% | 958.5 hPa | 0 mm | 1.79 m/s, 317° | 153 W/m² | - |
| 1777986639 | 4.44° C | 62% | 958.3 hPa | 0 mm | 1.79 m/s, 325° | 170 W/m² | - |
| 1777986216 | 4.44° C | 63% | 958.3 hPa | 0 mm | 2.24 m/s, 269° | 144 W/m² | - |
| 1777985915 | 4.44° C | 64% | 958.3 hPa | 0 mm | 2.24 m/s, 249° | 120 W/m² | - |
| 1777985615 | 4.44° C | 64% | 958.1 hPa | 0 mm | 2.24 m/s, 309° | 145 W/m² | - |
| 1777985316 | 3.89° C | 65% | 958.2 hPa | 0 mm | 2.68 m/s, 323° | 103 W/m² | - |
| 1777985016 | 3.89° C | 66% | 958.2 hPa | 0 mm | 2.68 m/s, 306° | 90 W/m² | - |
| 1777984712 | 3.89° C | 66% | 958.1 hPa | 0 mm | 2.24 m/s, 311° | 90 W/m² | - |
| 1777984410 | 3.89° C | 66% | 958.1 hPa | 0 mm | 2.24 m/s, 298° | 90 W/m² | - |
| 1777984234 | 3.89° C | 65% | 957.9 hPa | 0 mm | 2.24 m/s, 313° | 92 W/m² | - |
| 1777983810 | 3.89° C | 66% | 957.9 hPa | 0 mm | 2.24 m/s, 309° | 96 W/m² | - |
| 1777983509 | 3.33° C | 66% | 957.7 hPa | 0 mm | 2.24 m/s, 298° | 103 W/m² | - |
| 1777983334 | 3.33° C | 67% | 957.7 hPa | 0 mm | 2.24 m/s, 321° | 72 W/m² | - |
| 1777982910 | 3.33° C | 67% | 957.6 hPa | 0 mm | 1.79 m/s, 297° | 57 W/m² | - |
| 1777982610 | 3.33° C | 68% | 957.6 hPa | 0 mm | 1.79 m/s, 313° | 49 W/m² | - |
| 1777982309 | 3.33° C | 68% | 957.5 hPa | 0 mm | 2.24 m/s, 327° | 41 W/m² | - |
| 1777982011 | 3.33° C | 68% | 957.4 hPa | 0 mm | 2.24 m/s, 315° | 35 W/m² | - |
| 1777981710 | 3.33° C | 68% | 957.4 hPa | 0 mm | 2.24 m/s, 289° | 30 W/m² | - |
| 1777981410 | 2.78° C | 68% | 957.3 hPa | 0 mm | 1.79 m/s, 307° | 28 W/m² | - |
| 1777981111 | 2.78° C | 68% | 957.4 hPa | 0 mm | 1.34 m/s, 198° | 22 W/m² | - |
| 1777980934 | 2.78° C | 68% | 957.5 hPa | 0 mm | 0.89 m/s, 294° | 16 W/m² | - |
* Rain latest hour (hover to see other rain measurements)
** Current wind speed in m/s (hover to see current wind gust speed)